Cap Bonavista — A8CH8 — position and weather

sailwx.info

Track history (hours):
 
Tides and Currents Weather Stations Pressure Air Temp Water Temp Dewpoint Dewpoint Depression Visibility Wind Speed Wind Dir Waves Ship Positions

Cap Bonavista

Last reported at 2015-Mar-07 18:25 UTC. Time now 2015-Mar-31 12:34 UTC.
Position N 07°47' W 013°45'.
Warning: this ship's position is 23 days out of date.

Length 200 m; beam 29.8 m; draft 11.6 m.

Type: Cargo ship. MMSI: 636090647.

Date/timePositionNaut miles runAvg speedWind from/ knotsBaromVisibWave heightAir tempDewpointWater temp
2015-Mar-07 18:25N 07°47' W 013°45'1410.9
2015-Mar-07 17:09N 07°60' W 013°50'91 7.2
2015-Mar-07 04:33N 09°31' W 013°43'0 0.0
2015-Mar-07 03:33N 09°31' W 013°43'0 0.0
2015-Mar-07 02:33N 09°31' W 013°43'0 0.0
2015-Mar-07 01:33N 09°31' W 013°43'0 0.0
2015-Mar-07 00:30N 09°31' W 013°43'0 0.0
2015-Mar-06 23:33N 09°31' W 013°43'0 0.0
2015-Mar-06 22:33N 09°31' W 013°43'0 0.0
2015-Mar-06 21:33N 09°31' W 013°43'0 0.0
2015-Mar-06 20:30N 09°31' W 013°43'123 2.5
2015-Mar-04 18:33N 09°23' W 015°48'6 2.7
2015-Mar-04 16:28N 09°23' W 015°54'9 9.8
2015-Mar-04 15:30N 09°27' W 016°03'1010.3
2015-Mar-04 14:33N 09°33' W 016°10'1110.3
2015-Mar-04 13:31N 09°40' W 016°19'1010.3
2015-Mar-04 12:31N 09°47' W 016°26'4010.1
2015-Mar-04 08:33N 10°14' W 016°57'  
2015-Feb-25 19:10N 35°60' W 005°29'5 8.3
2015-Feb-25 18:33N 36°03' W 005°24'  
Track history (hours):
 
Tides and Currents Weather Stations Pressure Air Temp Water Temp Dewpoint Dewpoint Depression Visibility Wind Speed Wind Dir Waves Ship Positions

Cap Bonavista

Last reported at 2015-Mar-07 18:25 UTC. Time now 2015-Mar-31 12:34 UTC.
Position N 07°47' W 013°45'.
Warning: this ship's position is 23 days out of date.

Length 200 m; beam 29.8 m; draft 11.6 m.

Type: Cargo ship. MMSI: 636090647.

Date/timePositionNaut miles runAvg speedWind from/ knotsBaromVisibWave heightAir tempDewpointWater temp
2015-Mar-07 18:25N 07°47' W 013°45'1410.9
2015-Mar-07 17:09N 07°60' W 013°50'91 7.2
2015-Mar-07 04:33N 09°31' W 013°43'0 0.0
2015-Mar-07 03:33N 09°31' W 013°43'0 0.0
2015-Mar-07 02:33N 09°31' W 013°43'0 0.0
2015-Mar-07 01:33N 09°31' W 013°43'0 0.0
2015-Mar-07 00:30N 09°31' W 013°43'0 0.0
2015-Mar-06 23:33N 09°31' W 013°43'0 0.0
2015-Mar-06 22:33N 09°31' W 013°43'0 0.0
2015-Mar-06 21:33N 09°31' W 013°43'0 0.0
2015-Mar-06 20:30N 09°31' W 013°43'123 2.5
2015-Mar-04 18:33N 09°23' W 015°48'6 2.7
2015-Mar-04 16:28N 09°23' W 015°54'9 9.8
2015-Mar-04 15:30N 09°27' W 016°03'1010.3
2015-Mar-04 14:33N 09°33' W 016°10'1110.3
2015-Mar-04 13:31N 09°40' W 016°19'1010.3
2015-Mar-04 12:31N 09°47' W 016°26'4010.1
2015-Mar-04 08:33N 10°14' W 016°57'  
2015-Feb-25 19:10N 35°60' W 005°29'5 8.3
2015-Feb-25 18:33N 36°03' W 005°24'  

Dump ship's entire track history